createdAt,value
2022-11-15T00:02:29.832Z,4.30
2022-11-15T00:05:36.621Z,4.00
2022-11-15T00:08:39.250Z,3.87
2022-11-15T00:11:41.814Z,3.60
2022-11-15T00:14:44.594Z,3.33
2022-11-15T00:17:50.483Z,3.70
2022-11-15T00:20:53.097Z,4.03
2022-11-15T00:23:55.718Z,3.10
2022-11-15T00:26:58.333Z,3.17
2022-11-15T00:30:00.951Z,2.70
2022-11-15T00:33:05.539Z,2.87
2022-11-15T00:36:10.610Z,3.00
2022-11-15T00:39:13.300Z,3.83
2022-11-15T00:42:15.877Z,3.13
2022-11-15T00:45:18.665Z,3.30
2022-11-15T00:48:22.698Z,3.45
2022-11-15T00:51:25.419Z,3.63
2022-11-15T00:54:27.974Z,2.67
2022-11-15T00:57:30.538Z,3.33
2022-11-15T01:00:33.152Z,2.60
2022-11-15T01:03:37.431Z,3.33
2022-11-15T01:06:40.111Z,2.90
2022-11-15T01:09:42.652Z,3.40
2022-11-15T01:12:45.251Z,2.57
2022-11-15T01:15:47.837Z,2.90
2022-11-15T01:18:52.694Z,2.80
2022-11-15T01:21:55.288Z,2.30
2022-11-15T01:24:57.995Z,2.83
2022-11-15T01:28:00.571Z,2.60
2022-11-15T01:31:04.658Z,2.60
2022-11-15T01:34:08.622Z,2.87
2022-11-15T01:37:11.352Z,2.30
2022-11-15T01:40:13.946Z,2.55
2022-11-15T01:43:27.499Z,2.63
2022-11-15T01:46:32.851Z,2.67
2022-11-15T01:49:37.890Z,2.50
2022-11-15T01:52:41.430Z,2.17
2022-11-15T01:55:44.135Z,2.28
2022-11-15T01:58:47.393Z,2.30
2022-11-15T02:01:50.091Z,2.30
2022-11-15T02:04:54.029Z,2.10
2022-11-15T02:07:56.626Z,1.67
2022-11-15T02:10:59.246Z,1.83
2022-11-15T02:14:03.024Z,1.97
2022-11-15T02:17:15.285Z,1.97
2022-11-15T02:20:38.375Z,2.10
2022-11-15T02:24:18.478Z,2.00
2022-11-15T02:27:58.944Z,2.00
2022-11-15T02:31:06.202Z,1.90
2022-11-15T02:34:14.111Z,1.90
2022-11-15T02:37:19.355Z,1.80
2022-11-15T02:40:30.704Z,2.20
2022-11-15T02:43:56.428Z,1.63
2022-11-15T02:47:18.739Z,1.70
2022-11-15T02:50:23.887Z,1.73
2022-11-15T02:53:27.142Z,2.30
2022-11-15T02:56:29.882Z,1.70
2022-11-15T02:59:55.398Z,1.70
2022-11-15T03:03:25.617Z,2.27
2022-11-15T03:06:33.906Z,2.13
2022-11-15T03:09:37.565Z,2.60
2022-11-15T03:12:45.961Z,1.90
2022-11-15T03:15:53.023Z,2.43
2022-11-15T03:19:00.902Z,2.10
2022-11-15T03:22:06.503Z,2.00
2022-11-15T03:25:11.217Z,2.03
2022-11-15T03:28:17.333Z,1.80
2022-11-15T03:31:39.510Z,1.70
2022-11-15T03:34:45.898Z,1.90
2022-11-15T03:37:52.813Z,1.93
2022-11-15T03:40:58.470Z,1.93
2022-11-15T03:44:06.676Z,1.73
2022-11-15T03:47:12.123Z,2.33
2022-11-15T03:50:19.279Z,1.90
2022-11-15T03:53:21.828Z,1.80
2022-11-15T03:56:24.414Z,2.33
2022-11-15T03:59:27.065Z,2.17
2022-11-15T04:02:30.199Z,2.20
2022-11-15T04:05:34.361Z,1.92
2022-11-15T04:08:36.864Z,2.00
2022-11-15T04:11:39.399Z,2.03
2022-11-15T04:15:02.306Z,1.63
2022-11-15T04:18:05.015Z,1.97
2022-11-15T04:21:27.460Z,2.40
2022-11-15T04:24:30.114Z,2.10
2022-11-15T04:27:32.758Z,2.17
2022-11-15T04:30:35.325Z,2.50
2022-11-15T04:33:37.885Z,2.80
2022-11-15T04:36:59.269Z,3.00
2022-11-15T04:40:01.944Z,5.80
2022-11-15T04:43:04.576Z,5.40
2022-11-15T04:46:07.189Z,5.50
2022-11-15T04:49:09.784Z,5.60
2022-11-15T04:52:13.675Z,4.87
2022-11-15T04:55:16.577Z,4.80
2022-11-15T04:58:19.298Z,3.33
2022-11-15T05:01:21.902Z,4.30
2022-11-15T05:04:23.574Z,4.20
2022-11-15T05:07:27.576Z,4.73
2022-11-15T05:10:30.367Z,4.90
2022-11-15T05:13:33.289Z,5.85
2022-11-15T05:16:36.468Z,3.65
2022-11-15T05:19:39.458Z,4.32
2022-11-15T05:22:43.544Z,5.00
2022-11-15T05:25:46.112Z,4.30
2022-11-15T05:28:48.848Z,3.50
2022-11-15T05:31:51.500Z,3.70
2022-11-15T05:34:54.202Z,3.87
2022-11-15T05:37:58.446Z,3.27
2022-11-15T05:41:01.695Z,3.43
2022-11-15T05:44:07.503Z,3.65
2022-11-15T05:47:11.328Z,3.40
2022-11-15T05:50:15.079Z,3.20
2022-11-15T05:56:22.966Z,2.50
2022-11-15T05:59:25.841Z,2.22
2022-11-15T06:02:28.969Z,2.50
2022-11-15T06:05:31.854Z,2.50
2022-11-15T06:08:35.807Z,3.30
2022-11-15T06:11:38.395Z,3.83
2022-11-15T06:14:40.942Z,3.67
2022-11-15T06:17:43.542Z,2.70
2022-11-15T06:20:46.172Z,2.93
2022-11-15T06:23:50.176Z,2.87
2022-11-15T06:26:54.626Z,2.73
2022-11-15T06:29:57.221Z,3.37
2022-11-15T06:33:03.751Z,2.60
2022-11-15T06:36:09.232Z,3.00
2022-11-15T06:39:16.690Z,3.63
2022-11-15T06:42:19.252Z,3.83
2022-11-15T06:45:21.868Z,4.00
2022-11-15T06:48:24.759Z,4.47
2022-11-15T06:51:27.316Z,4.50
2022-11-15T06:54:31.496Z,4.83
2022-11-15T06:57:35.400Z,4.77
2022-11-15T07:00:38.320Z,5.57
2022-11-15T07:03:42.200Z,5.68
2022-11-15T07:06:45.274Z,5.00
2022-11-15T07:09:49.465Z,4.32
2022-11-15T07:12:52.238Z,5.00
2022-11-15T07:15:55.088Z,4.28
2022-11-15T07:18:57.938Z,5.45
2022-11-15T07:22:00.605Z,4.88
2022-11-15T07:25:05.397Z,5.28
2022-11-15T07:28:08.210Z,5.00
2022-11-15T07:31:11.307Z,5.13
2022-11-15T07:34:13.979Z,6.00
2022-11-15T07:37:17.899Z,5.33
2022-11-15T07:40:21.850Z,5.73
2022-11-15T07:43:24.432Z,5.47
2022-11-15T07:46:27.128Z,4.67
2022-11-15T07:49:29.803Z,4.20
2022-11-15T07:52:32.414Z,4.60
2022-11-15T07:55:36.401Z,4.93
2022-11-15T07:58:39.107Z,5.47
2022-11-15T08:01:42.384Z,4.72
2022-11-15T08:04:45.029Z,4.10
2022-11-15T08:07:52.651Z,4.00
2022-11-15T08:10:57.034Z,4.00
2022-11-15T08:14:00.288Z,4.10
2022-11-15T08:17:03.108Z,4.82
2022-11-15T08:20:06.309Z,4.22
2022-11-15T08:23:09.986Z,4.38
2022-11-15T08:29:16.887Z,4.28
2022-11-15T08:32:20.284Z,4.65
2022-11-15T08:35:28.657Z,4.57
2022-11-15T08:38:32.641Z,5.47
2022-11-15T08:41:39.245Z,5.43
2022-11-15T08:44:42.070Z,5.17
2022-11-15T08:47:47.415Z,5.10
2022-11-15T08:50:56.280Z,4.40
2022-11-15T08:53:58.861Z,4.97
2022-11-15T08:57:02.828Z,4.63
2022-11-15T09:00:06.622Z,5.23
2022-11-15T09:03:10.260Z,4.57
2022-11-15T09:09:15.558Z,3.97
2022-11-15T09:12:19.522Z,3.93
2022-11-15T09:15:22.214Z,4.00
2022-11-15T09:18:25.001Z,3.95
2022-11-15T09:21:27.767Z,4.97
2022-11-15T09:24:30.464Z,4.03
2022-11-15T09:27:34.425Z,3.63
2022-11-15T09:30:37.206Z,3.90
2022-11-15T09:33:39.899Z,3.28
2022-11-15T09:36:42.573Z,3.28
2022-11-15T09:39:45.465Z,3.97
2022-11-15T09:42:59.051Z,3.17
2022-11-15T09:46:11.145Z,3.80
2022-11-15T09:49:16.189Z,3.03
2022-11-15T09:52:19.829Z,3.53
2022-11-15T09:55:32.700Z,3.33
2022-11-15T09:58:40.334Z,3.95
2022-11-15T10:01:48.429Z,4.00
2022-11-15T10:04:51.672Z,3.10
2022-11-15T10:08:00.795Z,2.78
2022-11-15T10:11:35.617Z,4.17
2022-11-15T10:14:33.209Z,3.10
2022-11-15T10:17:51.590Z,3.43
2022-11-15T10:20:58.343Z,3.43
2022-11-15T10:24:01.059Z,3.43
2022-11-15T10:27:03.917Z,3.50
2022-11-15T10:30:13.309Z,3.45
2022-11-15T10:33:25.374Z,3.90
2022-11-15T10:36:28.151Z,3.83
2022-11-15T10:39:31.731Z,4.38
2022-11-15T10:42:34.543Z,4.07
2022-11-15T10:45:39.573Z,3.72
2022-11-15T10:48:42.595Z,3.43
2022-11-15T10:51:47.859Z,3.72
2022-11-15T10:54:59.948Z,4.10
2022-11-15T10:58:06.785Z,3.13
2022-11-15T11:01:18.924Z,3.17
2022-11-15T11:04:21.935Z,3.57
2022-11-15T11:07:26.564Z,3.70
2022-11-15T11:10:50.273Z,3.77
2022-11-15T11:13:52.594Z,4.35
2022-11-15T11:17:03.492Z,4.20
2022-11-15T11:20:12.068Z,3.93
2022-11-15T11:23:27.379Z,4.10
2022-11-15T11:26:41.079Z,3.60
2022-11-15T11:33:00.578Z,3.57
2022-11-15T11:36:16.077Z,3.80
2022-11-15T11:39:28.807Z,3.80
2022-11-15T11:42:38.356Z,3.93
2022-11-15T11:45:55.424Z,3.83
2022-11-15T11:49:03.839Z,3.90
2022-11-15T11:52:11.757Z,4.73
2022-11-15T11:55:16.833Z,3.43
2022-11-15T11:58:22.165Z,3.10
2022-11-15T12:01:26.951Z,3.20
2022-11-15T12:04:32.889Z,2.20
2022-11-15T12:07:37.129Z,2.57
2022-11-15T12:10:39.964Z,2.20
2022-11-15T12:13:42.896Z,1.60
2022-11-15T12:16:45.537Z,1.75
2022-11-15T12:19:49.641Z,2.55
2022-11-15T12:22:56.441Z,2.10
2022-11-15T12:26:03.376Z,1.87
2022-11-15T12:29:11.625Z,1.93
2022-11-15T12:32:21.191Z,2.13
2022-11-15T12:35:30.136Z,2.90
2022-11-15T12:38:56.134Z,1.80
2022-11-15T12:42:46.611Z,3.33
2022-11-15T12:45:49.422Z,2.67
2022-11-15T12:48:57.355Z,2.35
2022-11-15T12:52:11.010Z,3.13
2022-11-15T12:55:33.903Z,2.63
2022-11-15T12:58:44.076Z,4.67
2022-11-15T13:02:02.445Z,4.10
2022-11-15T13:05:56.830Z,2.57
2022-11-15T13:09:00.923Z,2.35
2022-11-15T13:12:04.859Z,4.43
2022-11-15T13:15:43.058Z,2.37
2022-11-15T13:18:55.384Z,2.30
2022-11-15T13:22:16.018Z,2.70
2022-11-15T13:25:21.567Z,2.83
2022-11-15T13:28:30.543Z,3.00
2022-11-15T13:31:38.246Z,2.67
2022-11-15T13:34:56.504Z,2.37
2022-11-15T13:38:06.462Z,2.30
2022-11-15T13:41:22.584Z,2.50
2022-11-15T13:44:27.126Z,2.47
2022-11-15T13:47:31.067Z,5.07
2022-11-15T13:50:36.672Z,2.50
2022-11-15T13:53:42.068Z,2.77
2022-11-15T13:56:48.132Z,2.03
2022-11-15T13:59:52.843Z,2.67
2022-11-15T14:02:56.776Z,3.07
2022-11-15T14:06:08.580Z,2.40
2022-11-15T14:09:36.356Z,3.13
2022-11-15T14:12:40.867Z,2.30
2022-11-15T14:15:43.850Z,2.47
2022-11-15T14:18:49.031Z,2.50
2022-11-15T14:22:15.001Z,2.30
2022-11-15T14:25:21.193Z,2.27
2022-11-15T14:28:34.498Z,3.63
2022-11-15T14:31:42.573Z,2.50
2022-11-15T14:34:46.485Z,2.37
2022-11-15T14:37:49.735Z,2.50
2022-11-15T14:40:52.606Z,2.10
2022-11-15T14:43:56.558Z,2.35
2022-11-15T14:46:59.179Z,2.17
2022-11-15T14:50:01.861Z,2.40
2022-11-15T14:53:05.279Z,2.53
2022-11-15T14:59:11.894Z,2.33
2022-11-15T15:02:19.177Z,2.57
2022-11-15T15:05:24.385Z,2.83
2022-11-15T15:08:27.055Z,2.43
2022-11-15T15:11:31.746Z,4.00
2022-11-15T15:14:35.767Z,3.10
2022-11-15T15:17:38.592Z,4.47
2022-11-15T15:20:42.370Z,2.65
2022-11-15T15:23:44.999Z,3.90
2022-11-15T15:26:47.574Z,3.00
2022-11-15T15:29:51.511Z,2.35
2022-11-15T15:32:54.890Z,2.40
2022-11-15T15:35:57.613Z,1.88
2022-11-15T15:39:00.360Z,2.25
2022-11-15T15:42:03.033Z,1.95
2022-11-15T15:45:08.298Z,2.17
2022-11-15T15:48:13.586Z,2.10
2022-11-15T15:51:20.420Z,2.40
2022-11-15T15:54:23.492Z,1.87
2022-11-15T15:57:26.160Z,1.85
2022-11-15T16:00:30.392Z,2.22
2022-11-15T16:03:33.190Z,1.90
2022-11-15T16:06:40.351Z,1.80
2022-11-15T16:10:00.760Z,2.00
2022-11-15T16:13:03.551Z,2.00
2022-11-15T16:16:11.483Z,2.33
2022-11-15T16:19:14.310Z,2.53
2022-11-15T16:22:17.020Z,1.67
2022-11-15T16:25:19.712Z,2.40
2022-11-15T16:28:24.814Z,1.75
2022-11-15T16:31:28.771Z,2.50
2022-11-15T16:34:34.888Z,2.10
2022-11-15T16:37:40.856Z,2.00
2022-11-15T16:43:47.612Z,2.00
2022-11-15T16:46:52.753Z,2.60
2022-11-15T16:49:55.426Z,2.50
2022-11-15T16:52:59.400Z,2.50
2022-11-15T16:56:02.107Z,2.10
2022-11-15T16:59:04.775Z,2.20
2022-11-15T17:02:12.015Z,2.22
2022-11-15T17:05:19.881Z,2.63
2022-11-15T17:08:24.418Z,2.57
2022-11-15T17:11:27.024Z,2.30
2022-11-15T17:14:29.698Z,2.72
2022-11-15T17:17:34.161Z,2.60
2022-11-15T17:20:36.847Z,2.20
2022-11-15T17:23:39.736Z,2.38
2022-11-15T17:26:42.878Z,2.40
2022-11-15T17:29:45.531Z,2.42
2022-11-15T17:32:49.855Z,2.20
2022-11-15T17:35:57.166Z,2.77
2022-11-15T17:39:00.313Z,2.60
2022-11-15T17:42:03.199Z,3.13
2022-11-15T17:45:09.920Z,2.72
2022-11-15T17:48:14.584Z,3.13
2022-11-15T17:51:18.760Z,2.47
2022-11-15T17:54:21.371Z,2.87
2022-11-15T17:57:24.239Z,3.23
2022-11-15T18:00:26.865Z,3.20
2022-11-15T18:03:31.337Z,2.80
2022-11-15T18:06:35.498Z,3.10
2022-11-15T18:09:38.796Z,3.20
2022-11-15T18:12:41.558Z,2.67
2022-11-15T18:15:44.145Z,3.40
2022-11-15T18:18:49.181Z,2.73
2022-11-15T18:21:57.937Z,3.30
2022-11-15T18:25:00.558Z,2.87
2022-11-15T18:28:03.137Z,3.23
2022-11-15T18:31:14.061Z,3.13
2022-11-15T18:34:18.573Z,2.70
2022-11-15T18:37:21.171Z,3.70
2022-11-15T18:40:23.787Z,3.90
2022-11-15T18:43:26.621Z,2.63
2022-11-15T18:46:30.757Z,2.90
2022-11-15T18:49:35.472Z,3.90
2022-11-15T18:52:38.117Z,3.93
2022-11-15T18:55:40.867Z,4.07
2022-11-15T18:58:46.482Z,3.95
2022-11-15T19:01:50.108Z,3.37
2022-11-15T19:04:54.143Z,3.77
2022-11-15T19:07:56.840Z,4.83
2022-11-15T19:11:04.001Z,4.70
2022-11-15T19:14:08.224Z,4.63
2022-11-15T19:17:11.018Z,5.57
2022-11-15T19:20:15.204Z,5.32
2022-11-15T19:23:17.823Z,4.87
2022-11-15T19:26:21.578Z,4.93
2022-11-15T19:29:24.522Z,4.37
2022-11-15T19:32:28.794Z,5.03
2022-11-15T19:35:32.830Z,3.77
2022-11-15T19:38:36.779Z,3.97
2022-11-15T19:41:42.209Z,5.33
2022-11-15T19:44:44.884Z,5.10
2022-11-15T19:47:47.621Z,5.28
2022-11-15T19:50:51.715Z,5.15
2022-11-15T19:53:55.838Z,5.27
2022-11-15T19:56:58.485Z,4.63
2022-11-15T20:00:06.863Z,6.00
2022-11-15T20:03:10.043Z,5.03
2022-11-15T20:06:16.832Z,5.20
2022-11-15T20:09:20.490Z,5.27
2022-11-15T20:12:23.627Z,5.23
2022-11-15T20:15:26.450Z,6.15
2022-11-15T20:18:30.679Z,6.35
2022-11-15T20:21:35.368Z,5.90
2022-11-15T20:24:38.114Z,6.07
2022-11-15T20:27:40.886Z,5.75
2022-11-15T20:30:44.300Z,5.90
2022-11-15T20:33:47.393Z,6.60
2022-11-15T20:36:51.446Z,5.45
2022-11-15T20:39:54.179Z,5.70
2022-11-15T20:42:56.998Z,6.57
2022-11-15T20:45:59.756Z,6.30
2022-11-15T20:49:02.463Z,6.00
2022-11-15T20:52:06.704Z,5.63
2022-11-15T20:55:10.592Z,6.60
2022-11-15T20:58:13.313Z,7.03
2022-11-15T21:01:17.748Z,7.22
2022-11-15T21:04:20.779Z,6.30
2022-11-15T21:07:25.020Z,5.60
2022-11-15T21:10:45.200Z,5.83
2022-11-15T21:13:47.890Z,5.67
2022-11-15T21:16:50.740Z,5.78
2022-11-15T21:19:53.869Z,5.28
2022-11-15T21:22:58.064Z,5.22
2022-11-15T21:26:00.647Z,5.90
2022-11-15T21:29:03.541Z,5.60
2022-11-15T21:32:08.173Z,4.72
2022-11-15T21:38:38.791Z,4.23
2022-11-15T21:41:41.396Z,5.63
2022-11-15T21:44:44.027Z,4.70
2022-11-15T21:47:46.971Z,4.93
2022-11-15T21:50:56.261Z,4.97
2022-11-15T21:54:00.660Z,4.93
2022-11-15T21:57:03.392Z,4.27
2022-11-15T22:00:38.839Z,4.80
2022-11-15T22:03:41.912Z,4.73
2022-11-15T22:06:44.627Z,4.10
2022-11-15T22:09:48.565Z,3.70
2022-11-15T22:12:51.180Z,3.83
2022-11-15T22:15:54.138Z,3.40
2022-11-15T22:18:57.090Z,3.85
2022-11-15T22:22:00.845Z,4.20
2022-11-15T22:25:05.995Z,3.40
2022-11-15T22:28:08.707Z,4.87
2022-11-15T22:31:11.942Z,4.60
2022-11-15T22:34:14.657Z,5.43
2022-11-15T22:37:21.303Z,5.60
2022-11-15T22:40:25.607Z,5.77
2022-11-15T22:43:28.532Z,5.00
2022-11-15T22:46:31.332Z,4.72
2022-11-15T22:49:34.016Z,4.38
2022-11-15T22:52:37.100Z,4.13
2022-11-15T22:55:41.343Z,6.63
2022-11-15T22:58:44.106Z,5.30
2022-11-15T23:01:46.835Z,7.30
2022-11-15T23:04:49.535Z,7.82
2022-11-15T23:07:52.234Z,7.22
2022-11-15T23:11:13.659Z,6.55
2022-11-15T23:14:16.541Z,5.53
2022-11-15T23:17:19.219Z,4.82
2022-11-15T23:20:41.958Z,5.15
2022-11-15T23:23:43.510Z,5.70
2022-11-15T23:26:49.339Z,5.90
2022-11-15T23:30:08.978Z,5.10
2022-11-15T23:33:32.537Z,4.87
2022-11-15T23:36:35.244Z,5.28
2022-11-15T23:39:38.174Z,4.78
2022-11-15T23:42:42.231Z,5.05
2022-11-15T23:45:44.925Z,4.40
2022-11-15T23:48:47.803Z,3.85
2022-11-15T23:51:50.520Z,5.10
2022-11-15T23:54:53.271Z,3.30
2022-11-15T23:57:57.500Z,4.13
